Airfield :
LOGIN :

Register | Disclaimer

   EN    FR    IT 

 










Legend :    VFR   Marginal VFR   IFR   Intensive IFR   Very Intensive IFR
Visi :
Ceiling :
>= 8 km
>= 3000ft
5 to 8 km
1000 to 3000 ft
1500m to 5 km
500 to 1000 ft
800 to 1500m
200 to 500 ft
< 800m
< 200 ft
Symbols :   Thunderstorms  Fog  Heavy snow  Heavy precipitations  Wind > 20 kt
SIGMETs :     Misc.  Thunderstorms  Icing  Turbulence  Mountain Waves  Volcanic Ashes






- Airport Elevation : 425 ft
- IATA code : DTM


EDLW - Dortmund

CURRENT METAR :
  • 220050Z AUTO 20014KT 9999 // FEW015/// SCT021/// OVC026/// 08/07 Q0999

EXPIRED METARs :
  • 220020Z AUTO 19016KT 9999 // OVC024/// 08/07 Q1000
  • 212350Z AUTO 19015KT 9999 // SCT026/// OVC030/// 08/06 Q1000
  • 212320Z AUTO 19015KT 9999 // FEW017/// SCT025/// OVC030/// 08/06 Q1001
  • 212250Z AUTO 19015KT 9999 // FEW018/// SCT026/// OVC031/// 08/06 Q1001
  • 212220Z AUTO 19018KT 9999 // FEW020/// OVC029/// 08/05 Q1002
  • 212150Z 19016G28KT 9999 BKN028 OVC048 08/05 Q1002
  • 212120Z 18016KT 9999 -RA SCT029 OVC033 08/05 Q1003
  • 212050Z 18018KT 9999 -RA OVC030 08/05 Q1003
  • 212020Z 18019G29KT 9999 SCT035 BKN044 08/04 Q1004
  • 211950Z 18018G30KT 9999 -RA SCT046 08/04 Q1004

TAF TAF EDLW
Valid from the 21 at 18:00 until the 22 at 18:00 UTC


211700Z 2118/2218 20013KT 9999 BKN030
PROB30
TEMPO 2118/2202 20015G25KT
TEMPO 2120/2208 3000 RA BKN010
BECMG 2211/2214 19015G25KT
TEMPO 2215/2218 19020G30KT RA



MET'MAP, your aeronautical weather chart ! - Copyright ORBIFLY December 2007 - Disclaimer

ORBIFLY MET'MAP TEAM :

Programming & Development : Alexandra Zaïnal
Original concept : Baudouin d'Aumeries
Technical & hardware support : Manuel Goepfert
Assistance : Marc-Olivier Méhu




SOURCES & CREDITS :

   NOAA